Time;durP1;ratioP1;P1;durP2;ratioP2;P2;SDS_P1;SDS_P2;PMS_P1;PMS_P2;Temp;Humidity;BMP_temperature;BMP_pressure;BME280_temperature;BME280_humidity;BME280_pressure;Samples;Min_cycle;Max_cycle;Signal;HPM_P1;HPM_P2
2023/06/04 00:01:29;;;;;;;3.63;1.20;;;;;;;19.50;44.27;97124.59;10402043;28;20042;-57
2023/06/04 00:06:49;;;;;;;2.22;1.50;;;;;;;19.50;44.39;97127.31;10388591;28;20094;-56
2023/06/04 00:12:08;;;;;;;2.85;1.58;;;;;;;19.49;44.26;97114.88;10380340;28;20072;-57
2023/06/04 00:17:28;;;;;;;1.83;1.27;;;;;;;19.50;44.15;97121.06;10384438;28;20049;-56
2023/06/04 00:22:47;;;;;;;1.10;1.00;;;;;;;19.50;44.09;97116.50;10381416;28;20570;-56
2023/06/04 00:28:07;;;;;;;1.40;1.30;;;;;;;19.49;44.03;97112.19;10395266;28;20042;-57
2023/06/04 00:33:26;;;;;;;3.80;1.63;;;;;;;19.49;43.92;97106.00;10383906;28;20057;-57
2023/06/04 00:38:46;;;;;;;1.35;1.23;;;;;;;19.48;43.99;97110.59;10397624;28;20045;-57
2023/06/04 00:44:06;;;;;;;2.53;1.60;;;;;;;19.46;43.99;97099.28;10405046;28;20103;-57
2023/06/04 00:49:26;;;;;;;1.55;1.30;;;;;;;19.46;43.93;97104.69;10383419;28;20098;-57
2023/06/04 00:54:46;;;;;;;1.92;1.38;;;;;;;19.47;43.81;97103.59;10428181;28;20050;-57
2023/06/04 01:00:07;;;;;;;2.05;1.50;;;;;;;19.47;43.91;97097.41;10437747;28;20046;-56
2023/06/04 01:05:36;;;;;;;2.13;1.27;;;;;;;19.45;43.80;97089.63;10385858;28;20447;-57
2023/06/04 01:10:56;;;;;;;2.53;1.40;;;;;;;19.45;43.88;97089.63;10437549;28;20045;-56
2023/06/04 01:16:16;;;;;;;2.10;1.15;;;;;;;19.45;43.98;97097.72;10379692;28;20041;-56
2023/06/04 01:21:38;;;;;;;2.13;1.17;;;;;;;19.45;43.88;97091.53;10391213;28;20510;-57
2023/06/04 01:26:58;;;;;;;1.70;1.20;;;;;;;19.44;43.95;97090.72;10435876;28;20053;-56
2023/06/04 01:32:17;;;;;;;2.05;1.40;;;;;;;19.44;43.89;97084.53;10373132;28;20042;-57
2023/06/04 01:37:36;;;;;;;1.27;1.13;;;;;;;19.43;43.81;97080.25;10447571;28;20042;-56
2023/06/04 01:42:56;;;;;;;1.88;1.35;;;;;;;19.42;43.96;97078.63;10375342;28;20042;-57
2023/06/04 01:48:15;;;;;;;1.83;1.27;;;;;;;19.42;43.78;97075.94;10397434;28;20509;-56
2023/06/04 01:53:35;;;;;;;1.88;1.35;;;;;;;19.42;43.83;97078.63;10378712;28;20057;-56
2023/06/04 01:58:55;;;;;;;2.45;1.20;;;;;;;19.41;43.65;97077.84;10384689;28;20049;-57
2023/06/04 02:04:15;;;;;;;1.83;1.35;;;;;;;19.39;43.72;97069.28;10386169;28;20053;-57
2023/06/04 02:09:35;;;;;;;2.42;1.50;;;;;;;19.40;43.71;97075.47;10443839;28;20054;-56
2023/06/04 02:14:54;;;;;;;1.15;1.05;;;;;;;19.39;43.76;97077.38;10387202;28;20053;-57
2023/06/04 02:20:14;;;;;;;1.40;1.30;;;;;;;19.38;43.70;97083.88;10385574;28;20042;-56
2023/06/04 02:25:33;;;;;;;1.92;1.52;;;;;;;19.38;43.79;97078.47;10396420;28;20053;-56
2023/06/04 02:30:53;;;;;;;2.13;1.48;;;;;;;19.39;43.66;97090.88;10398151;28;20409;-56
2023/06/04 02:36:12;;;;;;;1.48;1.38;;;;;;;19.38;43.80;97086.56;10400289;28;20406;-57
2023/06/04 02:41:32;;;;;;;1.95;1.30;;;;;;;19.37;43.83;97095.81;10388104;28;20103;-56
2023/06/04 02:46:52;;;;;;;1.65;1.30;;;;;;;19.36;43.80;97091.50;10373229;28;20042;-56
2023/06/04 02:52:12;;;;;;;1.23;1.13;;;;;;;19.36;43.69;97088.78;10381076;28;20103;-57
2023/06/04 02:57:32;;;;;;;1.25;1.13;;;;;;;19.36;43.61;97099.59;10444752;28;20042;-56
2023/06/04 03:02:51;;;;;;;1.10;1.00;;;;;;;19.35;43.56;97100.72;10384603;28;20046;-56
2023/06/04 03:08:11;;;;;;;2.08;1.08;;;;;;;19.35;43.67;97101.50;10388169;28;20075;-57
2023/06/04 03:13:32;;;;;;;1.40;1.10;;;;;;;19.34;43.60;97107.22;10441701;28;20046;-56
2023/06/04 03:18:52;;;;;;;1.60;1.23;;;;;;;19.33;43.51;97105.66;10374587;28;20037;-56
2023/06/04 03:24:11;;;;;;;1.15;1.05;;;;;;;19.33;43.56;97119.94;10448811;28;20042;-56
2023/06/04 03:29:31;;;;;;;1.25;1.15;;;;;;;19.32;43.63;97123.75;10405470;28;20053;-56
2023/06/04 03:34:52;;;;;;;1.40;1.20;;;;;;;19.33;43.65;97124.56;10440852;28;20045;-57
2023/06/04 03:40:13;;;;;;;1.48;1.23;;;;;;;19.32;43.59;97121.03;10394315;28;20042;-56
2023/06/04 03:45:35;;;;;;;1.10;1.00;;;;;;;19.32;43.59;97125.66;10440856;28;20046;-57
2023/06/04 03:50:55;;;;;;;1.63;1.25;;;;;;;19.31;43.61;97124.88;10437471;28;20058;-56
2023/06/04 03:56:15;;;;;;;1.60;1.40;;;;;;;19.31;43.56;97124.09;10439080;28;20042;-56
2023/06/04 04:01:35;;;;;;;1.95;1.40;;;;;;;19.32;43.70;97131.84;10382236;28;20042;-57
2023/06/04 04:06:55;;;;;;;1.40;1.10;;;;;;;19.32;43.61;97128.34;10439515;28;20107;-56
2023/06/04 04:12:15;;;;;;;1.42;1.30;;;;;;;19.32;43.69;97136.47;10382359;28;20037;-57
2023/06/04 04:17:36;;;;;;;1.95;1.20;;;;;;;19.32;43.68;97133.75;10439245;28;20046;-57
2023/06/04 04:22:56;;;;;;;1.65;1.35;;;;;;;19.34;43.63;97134.25;10442266;28;20049;-56
2023/06/04 04:28:18;;;;;;;1.50;1.40;;;;;;;19.35;43.68;97133.16;10438032;28;20122;-57
2023/06/04 04:33:39;;;;;;;1.65;1.38;;;;;;;19.35;43.69;97139.34;10425741;28;20049;-57
2023/06/04 04:39:01;;;;;;;1.45;1.17;;;;;;;19.36;43.73;97151.72;10381315;28;20049;-57
2023/06/04 04:44:26;;;;;;;1.40;1.30;;;;;;;19.37;43.65;97149.84;10422654;28;20121;-57
2023/06/04 04:49:46;;;;;;;1.67;1.40;;;;;;;19.35;43.47;97133.94;10438499;28;20451;-56
2023/06/04 04:55:07;;;;;;;1.20;1.10;;;;;;;19.36;43.54;97134.72;10429292;28;20111;-56
2023/06/04 05:00:29;;;;;;;1.50;1.40;;;;;;;19.35;43.54;97143.94;10439425;27;20042;-57
2023/06/04 05:05:50;;;;;;;2.50;1.50;;;;;;;19.35;43.50;97144.75;10438237;28;20056;-56
2023/06/04 05:11:09;;;;;;;1.63;1.38;;;;;;;19.34;43.64;97139.66;10446825;28;20046;-56
2023/06/04 05:16:30;;;;;;;1.65;1.25;;;;;;;19.34;43.85;97151.25;10440685;28;20046;-56
2023/06/04 05:21:51;;;;;;;1.75;1.20;;;;;;;19.34;43.79;97155.84;10437431;28;20049;-56
2023/06/04 05:27:11;;;;;;;1.25;1.02;;;;;;;19.34;43.91;97161.25;10391096;28;20041;-57
2023/06/04 05:32:32;;;;;;;2.38;1.15;;;;;;;19.35;44.19;97170.97;10437073;28;20049;-56
2023/06/04 05:37:53;;;;;;;2.30;1.50;;;;;;;19.33;44.18;97162.38;10442898;28;20042;-57
2023/06/04 05:43:15;;;;;;;1.85;1.20;;;;;;;19.31;44.02;97170.78;10452333;28;20516;-57
2023/06/04 05:48:35;;;;;;;2.50;1.00;;;;;;;19.31;44.22;97176.19;10427883;28;20046;-56
2023/06/04 05:53:55;;;;;;;1.75;1.40;;;;;;;19.33;44.08;97178.59;10373165;28;20409;-57
2023/06/04 05:59:15;;;;;;;4.00;1.98;;;;;;;18.87;40.20;97182.53;10405630;28;20486;-56
2023/06/04 06:04:35;;;;;;;3.17;2.13;;;;;;;18.47;40.11;97179.72;10441949;28;20398;-56
2023/06/04 06:09:55;;;;;;;5.22;2.40;;;;;;;18.34;41.07;97176.78;10378693;28;20049;-56
2023/06/04 06:15:15;;;;;;;5.07;2.25;;;;;;;18.34;41.18;97187.56;10447025;28;20061;-56
2023/06/04 06:20:37;;;;;;;4.18;2.13;;;;;;;18.41;40.80;97186.34;10441791;28;20049;-55
2023/06/04 06:25:58;;;;;;;4.05;1.83;;;;;;;18.41;41.29;97192.53;10384350;28;20448;-56
2023/06/04 06:31:22;;;;;;;6.88;1.75;;;;;;;18.50;41.04;97193.41;10449184;28;20041;-56
2023/06/04 06:36:41;;;;;;;4.28;1.88;;;;;;;18.53;40.96;97210.88;10384894;28;20046;-56
2023/06/04 06:42:01;;;;;;;3.40;2.10;;;;;;;18.52;40.82;97206.56;10385170;28;20053;-56
2023/06/04 06:47:26;;;;;;;2.53;1.95;;;;;;;18.51;40.74;97210.38;10445469;28;20053;-56
2023/06/04 06:52:46;;;;;;;6.63;2.00;;;;;;;18.52;40.79;97214.66;10381266;28;20050;-57
2023/06/04 06:58:05;;;;;;;3.60;1.83;;;;;;;18.61;41.61;97210.13;10383845;28;20038;-57
2023/06/04 07:03:24;;;;;;;1.98;1.67;;;;;;;18.72;42.10;97219.56;10373787;28;20049;-57
2023/06/04 07:08:44;;;;;;;4.18;1.90;;;;;;;18.79;42.39;97219.13;10375493;28;20558;-58
2023/06/04 07:14:03;;;;;;;3.42;1.63;;;;;;;18.84;43.07;97221.75;10383781;28;20433;-58
2023/06/04 07:19:23;;;;;;;4.90;1.70;;;;;;;18.89;43.46;97228.91;10383829;28;20038;-57
2023/06/04 07:24:42;;;;;;;2.55;1.50;;;;;;;18.91;43.76;97224.78;10386017;28;20401;-57
2023/06/04 07:30:02;;;;;;;5.18;1.45;;;;;;;18.93;43.78;97227.16;10383599;28;20048;-57
2023/06/04 07:35:21;;;;;;;2.58;1.70;;;;;;;18.92;43.69;97228.28;10377922;28;20493;-56
2023/06/04 07:40:41;;;;;;;3.40;1.63;;;;;;;18.93;43.24;97237.97;10385956;28;20064;-57
2023/06/04 07:46:02;;;;;;;3.63;1.73;;;;;;;18.91;43.17;97226.69;10372604;28;20071;-57
2023/06/04 07:51:22;;;;;;;3.55;1.77;;;;;;;18.92;43.57;97229.09;10378579;28;20060;-57
2023/06/04 07:56:42;;;;;;;2.00;1.70;;;;;;;18.93;43.90;97227.16;10376491;28;20065;-56
2023/06/04 08:02:01;;;;;;;10.05;3.22;;;;;;;18.93;43.85;97227.16;10384136;28;20049;-56
2023/06/04 08:07:21;;;;;;;12.68;3.20;;;;;;;18.94;43.93;97224.16;10393980;28;20046;-56
2023/06/04 08:12:40;;;;;;;8.98;2.58;;;;;;;18.95;44.19;97228.47;10382098;28;20048;-57
2023/06/04 08:17:59;;;;;;;8.70;2.70;;;;;;;18.97;44.49;97222.75;10390355;28;20102;-57
2023/06/04 08:23:19;;;;;;;9.25;3.25;;;;;;;18.98;44.78;97228.97;10396028;28;20045;-56
2023/06/04 08:28:38;;;;;;;11.80;3.55;;;;;;;19.00;44.89;97222.13;10370744;28;20087;-57
2023/06/04 08:33:58;;;;;;;12.60;3.67;;;;;;;19.02;44.99;97221.84;10384968;28;20045;-56
2023/06/04 08:39:18;;;;;;;13.73;3.63;;;;;;;19.02;45.06;97222.63;10381123;28;20041;-57
2023/06/04 08:44:38;;;;;;;16.75;4.40;;;;;;;19.05;45.16;97227.41;10374757;28;20042;-57
2023/06/04 08:50:02;;;;;;;13.38;3.92;;;;;;;19.05;45.05;97227.41;10388234;28;20033;-55
2023/06/04 08:55:22;;;;;;;14.07;4.15;;;;;;;19.08;45.25;97228.69;10424616;28;20050;-57
2023/06/04 09:00:42;;;;;;;13.07;3.88;;;;;;;19.09;45.10;97222.16;10419793;28;20049;-57
2023/06/04 09:06:01;;;;;;;11.52;3.83;;;;;;;19.10;45.15;97224.56;10381507;28;20063;-57
2023/06/04 09:11:21;;;;;;;13.85;4.20;;;;;;;19.11;45.24;97234.28;10379928;28;20432;-57
2023/06/04 09:16:48;;;;;;;11.25;3.80;;;;;;;19.13;45.29;97226.66;10379784;28;20099;-57
2023/06/04 09:22:07;;;;;;;10.90;4.22;;;;;;;19.14;45.21;97241.75;10380176;28;20050;-56
2023/06/04 09:27:28;;;;;;;9.00;3.67;;;;;;;19.16;45.31;97233.34;10372720;28;20057;-57
2023/06/04 09:32:47;;;;;;;8.90;3.70;;;;;;;19.17;45.34;97241.13;10382224;28;20046;-56
2023/06/04 09:38:07;;;;;;;8.95;3.63;;;;;;;19.20;45.31;97244.31;10379576;28;20428;-57
2023/06/04 09:43:27;;;;;;;9.57;3.22;;;;;;;19.21;45.20;97232.38;10436771;28;20045;-56
2023/06/04 09:48:46;;;;;;;10.65;3.70;;;;;;;19.23;45.22;97238.28;10375459;28;20046;-56
2023/06/04 09:54:06;;;;;;;7.72;3.70;;;;;;;19.24;45.27;97235.25;10385863;28;20050;-56
2023/06/04 09:59:25;;;;;;;7.38;3.42;;;;;;;19.25;45.45;97236.88;10397435;28;20042;-57
2023/06/04 10:04:50;;;;;;;8.05;3.08;;;;;;;19.27;45.42;97236.56;10444601;28;20038;-56
2023/06/04 10:10:21;;;;;;;8.88;3.38;;;;;;;19.27;45.33;97237.34;10390475;28;20042;-56
2023/06/04 10:15:41;;;;;;;8.25;3.60;;;;;;;19.30;45.43;97230.53;10380412;28;20483;-56
2023/06/04 10:21:01;;;;;;;7.35;3.40;;;;;;;19.31;45.43;97232.13;10385646;28;20535;-56
2023/06/04 10:26:21;;;;;;;10.43;3.58;;;;;;;19.33;45.44;97227.22;10391427;28;20057;-57
2023/06/04 10:31:41;;;;;;;10.88;3.30;;;;;;;19.34;45.40;97226.09;10445958;28;20053;-57
2023/06/04 10:37:00;;;;;;;7.43;3.25;;;;;;;19.36;45.56;97223.88;10385462;28;20042;-57
2023/06/04 10:42:21;;;;;;;6.85;3.40;;;;;;;19.37;45.60;97230.88;10385343;28;20061;-56
2023/06/04 10:47:40;;;;;;;5.60;2.90;;;;;;;19.39;45.57;97233.28;10385307;28;20049;-56
2023/06/04 10:53:03;;;;;;;6.82;3.10;;;;;;;19.38;45.58;97224.34;10371760;28;20057;-57
2023/06/04 10:58:32;;;;;;;5.85;2.38;;;;;;;19.40;45.51;97232.16;10371909;28;20050;-56
2023/06/04 11:03:51;;;;;;;5.80;2.78;;;;;;;19.40;45.67;97230.25;10380299;28;20046;-56
2023/06/04 11:09:14;;;;;;;6.07;2.70;;;;;;;19.42;45.39;97222.63;10383539;28;20065;-56
2023/06/04 11:14:34;;;;;;;6.55;3.13;;;;;;;19.43;45.58;97226.13;10384211;28;20509;-56
2023/06/04 11:19:55;;;;;;;4.95;2.42;;;;;;;19.42;45.71;97233.44;10387029;28;20064;-56
2023/06/04 11:25:14;;;;;;;6.20;2.70;;;;;;;19.44;45.58;97225.00;10400871;28;20045;-57
2023/06/04 11:30:34;;;;;;;4.03;2.40;;;;;;;19.45;45.63;97230.13;10379823;28;20054;-56
2023/06/04 11:35:53;;;;;;;5.50;2.80;;;;;;;19.45;45.68;97213.91;10386457;28;20486;-57
2023/06/04 11:41:13;;;;;;;6.50;2.65;;;;;;;19.46;45.76;97214.69;10383528;28;20429;-57
2023/06/04 11:46:33;;;;;;;5.47;2.85;;;;;;;19.46;45.70;97215.47;10383548;28;20088;-56
2023/06/04 11:51:53;;;;;;;7.25;2.90;;;;;;;19.46;45.75;97222.78;10377494;28;20107;-56
2023/06/04 11:57:13;;;;;;;5.85;2.80;;;;;;;19.47;45.76;97216.28;10382552;28;20046;-56
2023/06/04 12:02:32;;;;;;;5.90;2.78;;;;;;;19.48;45.73;97218.69;10382932;28;20547;-56
2023/06/04 12:07:52;;;;;;;5.32;2.67;;;;;;;19.47;45.75;97211.69;10384574;28;20120;-57
2023/06/04 12:13:12;;;;;;;4.32;2.47;;;;;;;19.49;45.82;97201.34;10369143;28;20498;-56
2023/06/04 12:18:32;;;;;;;5.68;2.65;;;;;;;19.49;45.81;97197.88;10374688;28;20046;-56
2023/06/04 12:24:13;;;;;;;4.28;2.53;;;;;;;19.50;45.91;97199.44;10439077;28;20044;-57
2023/06/04 12:29:32;;;;;;;4.38;2.60;;;;;;;19.49;46.01;97200.56;10403702;28;20049;-56
2023/06/04 12:34:52;;;;;;;4.95;2.67;;;;;;;19.49;46.01;97204.06;10381233;28;20038;-56
2023/06/04 12:40:12;;;;;;;5.20;2.30;;;;;;;19.50;45.93;97200.25;10381211;28;20084;-57
2023/06/04 12:45:31;;;;;;;6.32;2.40;;;;;;;19.50;45.97;97205.66;10404804;28;20073;-56
2023/06/04 12:50:51;;;;;;;4.15;2.28;;;;;;;19.50;45.97;97189.44;10373340;28;20054;-56
2023/06/04 12:56:10;;;;;;;4.53;2.13;;;;;;;19.51;46.05;97193.72;10392927;28;20046;-56
2023/06/04 13:01:31;;;;;;;6.43;2.80;;;;;;;19.52;46.03;97198.03;10385671;28;20128;-56
2023/06/04 13:06:58;;;;;;;4.63;2.60;;;;;;;19.52;46.15;97194.50;10381209;28;20046;-56
2023/06/04 13:12:18;;;;;;;4.90;2.40;;;;;;;19.51;46.33;97177.50;10384791;28;20042;-57
2023/06/04 13:17:37;;;;;;;3.67;2.22;;;;;;;19.52;46.27;97186.41;10407054;28;20034;-57
2023/06/04 13:22:56;;;;;;;5.13;2.63;;;;;;;19.53;46.38;97188.00;10383370;28;20046;-56
2023/06/04 13:28:17;;;;;;;5.30;2.50;;;;;;;19.53;46.45;97180.69;10379529;28;20054;-57
2023/06/04 13:33:36;;;;;;;3.15;1.98;;;;;;;19.52;46.38;97181.81;10384268;28;20044;-56
2023/06/04 13:38:56;;;;;;;4.22;2.13;;;;;;;19.53;46.44;97177.22;10383470;28;20046;-57
2023/06/04 13:44:17;;;;;;;3.58;2.30;;;;;;;19.53;46.57;97164.47;10379406;28;20060;-57
2023/06/04 13:49:36;;;;;;;3.45;2.20;;;;;;;19.55;46.65;97169.56;10393174;28;20065;-57
2023/06/04 13:54:58;;;;;;;4.13;2.00;;;;;;;19.53;46.68;97156.38;10423327;28;20056;-57
2023/06/04 14:00:17;;;;;;;2.88;1.88;;;;;;;19.54;46.67;97160.69;10379895;28;20042;-56
2023/06/04 14:05:37;;;;;;;6.05;2.38;;;;;;;19.55;46.82;97158.78;10384140;28;20052;-57
2023/06/04 14:10:57;;;;;;;2.85;2.10;;;;;;;19.55;46.75;97151.44;10378995;28;20088;-57
2023/06/04 14:16:16;;;;;;;2.35;1.50;;;;;;;19.56;46.86;97155.75;10377733;28;20049;-56
2023/06/04 14:21:36;;;;;;;2.95;2.00;;;;;;;19.56;46.88;97144.94;10381181;28;20041;-57
2023/06/04 14:26:56;;;;;;;2.63;1.83;;;;;;;19.58;46.91;97154.63;10391407;28;20049;-57
2023/06/04 14:32:15;;;;;;;3.00;1.70;;;;;;;19.58;47.03;97151.94;10389483;28;20046;-56
2023/06/04 14:37:35;;;;;;;2.55;1.75;;;;;;;19.59;47.05;97145.44;10390539;28;20496;-56
2023/06/04 14:42:54;;;;;;;2.92;1.77;;;;;;;19.60;47.19;97147.00;10372029;28;20096;-57
2023/06/04 14:48:14;;;;;;;3.22;1.58;;;;;;;19.61;47.17;97148.59;10395812;28;20429;-57
2023/06/04 14:53:34;;;;;;;3.80;2.08;;;;;;;19.62;47.24;97147.47;10374907;28;20065;-57
2023/06/04 14:58:54;;;;;;;3.20;1.60;;;;;;;19.63;47.34;97149.09;10390170;28;20042;-56
2023/06/04 15:04:14;;;;;;;2.97;1.95;;;;;;;19.63;47.33;97135.56;10384246;28;20046;-57
2023/06/04 15:09:34;;;;;;;3.42;1.60;;;;;;;19.63;47.25;97141.78;10410711;28;20124;-57
2023/06/04 15:14:53;;;;;;;2.80;1.60;;;;;;;19.64;47.29;97129.84;10384039;28;20050;-56
2023/06/04 15:20:13;;;;;;;3.03;1.80;;;;;;;19.64;47.38;97129.84;10384012;28;20053;-56
2023/06/04 15:25:32;;;;;;;2.13;1.60;;;;;;;19.65;47.23;97125.25;10441232;28;20057;-57
2023/06/04 15:30:52;;;;;;;2.40;1.77;;;;;;;19.66;47.30;97124.13;10389345;28;20042;-56
2023/06/04 15:36:11;;;;;;;2.83;2.03;;;;;;;19.65;47.38;97126.03;10383315;28;20042;-57
2023/06/04 15:41:31;;;;;;;2.15;1.75;;;;;;;19.66;47.44;97124.94;10376291;28;20049;-57
2023/06/04 15:46:51;;;;;;;3.38;1.60;;;;;;;19.66;47.36;97122.22;10394055;28;20103;-57
2023/06/04 15:52:11;;;;;;;2.60;1.77;;;;;;;19.67;47.34;97128.41;10396638;28;20447;-57
2023/06/04 15:57:30;;;;;;;3.33;1.98;;;;;;;19.68;47.37;97127.28;10379208;28;20045;-56
2023/06/04 16:02:49;;;;;;;3.10;1.98;;;;;;;19.67;47.35;97131.91;10387337;28;20448;-57
2023/06/04 16:08:09;;;;;;;2.80;1.85;;;;;;;19.68;47.43;97127.28;10387479;28;20094;-57
2023/06/04 16:13:29;;;;;;;2.40;1.65;;;;;;;19.68;47.49;97130.00;10469350;28;20038;-57
2023/06/04 16:18:49;;;;;;;3.47;1.70;;;;;;;19.68;47.41;97128.13;10384611;28;20094;-56
2023/06/04 16:24:08;;;;;;;1.65;1.27;;;;;;;19.68;47.43;97125.41;10379728;28;20398;-56
2023/06/04 16:29:28;;;;;;;4.22;1.67;;;;;;;19.69;47.48;97120.78;10384665;28;20042;-57
2023/06/04 16:34:47;;;;;;;3.42;1.88;;;;;;;19.69;47.52;97126.97;10381452;28;20049;-56
2023/06/04 16:40:07;;;;;;;2.97;1.80;;;;;;;19.69;47.40;97124.28;10369881;28;20084;-57
2023/06/04 16:45:27;;;;;;;3.08;1.50;;;;;;;19.69;47.47;97132.38;10384076;28;20053;-57
2023/06/04 16:50:47;;;;;;;2.50;1.80;;;;;;;19.70;47.54;97123.19;10378487;28;20061;-57
2023/06/04 16:56:09;;;;;;;2.33;1.60;;;;;;;19.70;45.98;97125.09;10389052;28;20046;-57
2023/06/04 17:01:29;;;;;;;2.80;1.38;;;;;;;19.66;40.50;97116.00;10388046;28;20045;-57
2023/06/04 17:06:48;;;;;;;2.92;1.42;;;;;;;19.66;37.04;97118.72;10392173;28;20045;-55
2023/06/04 17:12:08;;;;;;;3.50;1.58;;;;;;;19.60;35.52;97120.78;10368581;28;20053;-57
2023/06/04 17:17:27;;;;;;;1.98;1.50;;;;;;;19.56;33.18;97117.09;10387534;28;20042;-57
2023/06/04 17:22:47;;;;;;;2.90;1.50;;;;;;;19.54;36.79;97117.44;10379760;28;20045;-56
2023/06/04 17:28:07;;;;;;;4.72;1.55;;;;;;;19.50;34.65;97115.66;10379922;28;20053;-57
2023/06/04 17:33:26;;;;;;;2.30;1.50;;;;;;;19.43;33.78;97124.25;10393766;28;20061;-57
2023/06/04 17:38:47;;;;;;;3.75;1.40;;;;;;;19.41;34.88;97121.06;10379682;28;20087;-57
2023/06/04 17:44:07;;;;;;;3.20;1.60;;;;;;;19.41;36.83;97118.38;10388415;28;20037;-57
2023/06/04 17:49:26;;;;;;;1.85;1.50;;;;;;;19.43;36.70;97113.44;10381267;28;20038;-57
2023/06/04 17:54:45;;;;;;;5.45;1.50;;;;;;;19.45;38.03;97105.81;10365687;28;20066;-57
2023/06/04 18:00:06;;;;;;;1.73;1.38;;;;;;;19.47;38.48;97114.41;10381909;28;20042;-60
2023/06/04 18:05:32;;;;;;;3.00;1.40;;;;;;;19.50;39.55;97121.91;10380193;28;20063;-60
2023/06/04 18:10:52;;;;;;;4.03;1.60;;;;;;;19.50;40.07;97116.50;10379171;28;20054;-59
2023/06/04 18:16:14;;;;;;;2.08;1.30;;;;;;;19.51;40.61;97115.38;10378795;28;20049;-58
2023/06/04 18:21:34;;;;;;;4.15;1.50;;;;;;;19.53;40.88;97112.34;10386119;28;20045;-59
2023/06/04 18:26:54;;;;;;;2.60;1.42;;;;;;;19.52;41.15;97116.16;10385449;28;20042;-57
2023/06/04 18:32:15;;;;;;;2.80;1.52;;;;;;;19.53;41.18;97118.53;10385765;28;20045;-57
2023/06/04 18:37:35;;;;;;;3.92;1.45;;;;;;;19.53;41.62;97110.44;10360761;28;20064;-58
2023/06/04 18:42:55;;;;;;;3.42;1.60;;;;;;;19.53;41.96;97107.72;10384949;28;20034;-58
2023/06/04 18:48:15;;;;;;;1.65;1.30;;;;;;;19.54;41.88;97116.63;10388006;28;20444;-59
2023/06/04 18:53:35;;;;;;;3.38;1.50;;;;;;;19.54;42.07;97120.16;10387516;28;20064;-57
2023/06/04 18:58:55;;;;;;;5.10;1.30;;;;;;;19.53;42.41;97121.25;10395222;28;20448;-59
2023/06/04 19:04:15;;;;;;;2.25;1.60;;;;;;;19.53;43.00;97129.34;10384693;28;20049;-60
2023/06/04 19:09:34;;;;;;;6.38;1.65;;;;;;;19.52;42.82;97133.19;10384804;28;20057;-59
2023/06/04 19:14:54;;;;;;;4.72;1.60;;;;;;;19.51;42.68;97136.97;10370990;28;20123;-59
2023/06/04 19:20:14;;;;;;;4.22;1.42;;;;;;;19.50;42.13;97140.81;10386810;28;20049;-56
2023/06/04 19:25:34;;;;;;;2.75;1.55;;;;;;;19.49;41.74;97147.31;10383759;28;20050;-59
2023/06/04 19:30:54;;;;;;;4.75;1.70;;;;;;;19.48;41.32;97148.44;10382935;28;20050;-59
2023/06/04 19:36:13;;;;;;;4.65;1.60;;;;;;;19.48;41.11;97159.25;10387807;28;20095;-61
2023/06/04 19:41:33;;;;;;;3.30;1.40;;;;;;;19.46;41.17;97153.34;10386533;28;20073;-59
2023/06/04 19:46:52;;;;;;;3.45;1.40;;;;;;;19.45;41.00;97157.16;10383396;28;20042;-58
2023/06/04 19:52:12;;;;;;;2.70;1.45;;;;;;;19.45;41.03;97167.19;10387676;28;20054;-58
2023/06/04 19:57:32;;;;;;;4.55;1.70;;;;;;;19.44;40.88;97169.06;10395088;28;20053;-58
2023/06/04 20:02:51;;;;;;;3.38;1.65;;;;;;;19.43;40.72;97166.69;10396558;28;20049;-58
2023/06/04 20:08:11;;;;;;;3.42;1.90;;;;;;;19.43;40.76;97172.88;10393412;28;20053;-56
2023/06/04 20:13:31;;;;;;;3.95;1.50;;;;;;;19.42;40.60;97168.59;10387833;28;20052;-59
2023/06/04 20:18:51;;;;;;;1.70;1.55;;;;;;;19.39;39.75;97166.53;10377366;28;20072;-57
2023/06/04 20:24:10;;;;;;;2.25;1.40;;;;;;;19.38;40.48;97175.72;10392952;28;20042;-56
2023/06/04 20:29:30;;;;;;;2.22;1.40;;;;;;;19.39;40.26;97177.34;10381747;28;20048;-56
2023/06/04 20:34:50;;;;;;;2.40;1.50;;;;;;;19.39;39.78;97182.72;10384304;28;20042;-57
2023/06/04 20:40:10;;;;;;;2.65;1.38;;;;;;;19.38;39.59;97175.72;10393292;28;20065;-57
2023/06/04 20:45:29;;;;;;;2.90;1.67;;;;;;;19.36;39.30;97186.06;10397145;28;20046;-56
2023/06/04 20:50:50;;;;;;;3.25;1.52;;;;;;;19.35;39.26;97197.97;10389833;28;20060;-56
2023/06/04 20:56:09;;;;;;;2.65;1.58;;;;;;;19.34;39.37;97190.97;10390038;28;20478;-57
2023/06/04 21:01:29;;;;;;;2.53;1.73;;;;;;;19.35;39.36;97184.47;10376407;28;20042;-57
2023/06/04 21:06:49;;;;;;;1.70;1.50;;;;;;;19.34;40.28;97182.88;10388459;28;20053;-56
2023/06/04 21:12:09;;;;;;;1.70;1.38;;;;;;;19.35;41.11;97187.19;10380362;28;20046;-57
2023/06/04 21:17:28;;;;;;;3.00;1.63;;;;;;;19.35;41.37;97192.59;10380294;28;20042;-56
2023/06/04 21:22:48;;;;;;;2.00;1.40;;;;;;;19.34;41.38;97194.47;10380875;28;20042;-56
2023/06/04 21:28:07;;;;;;;2.28;1.58;;;;;;;19.35;41.42;97197.97;10380569;28;20045;-56
2023/06/04 21:33:27;;;;;;;2.85;1.90;;;;;;;19.36;41.43;97199.56;10379786;28;20049;-57
2023/06/04 21:38:46;;;;;;;2.30;1.40;;;;;;;19.35;41.57;97200.69;10396242;28;20038;-56
2023/06/04 21:44:05;;;;;;;1.85;1.40;;;;;;;19.35;41.79;97197.97;10382154;28;20398;-56
2023/06/04 21:49:27;;;;;;;2.22;1.67;;;;;;;19.35;41.78;97206.09;10378222;28;20149;-56
2023/06/04 21:54:46;;;;;;;2.00;1.65;;;;;;;19.34;41.85;97202.56;10368346;28;20202;-56
2023/06/04 22:00:07;;;;;;;1.83;1.50;;;;;;;19.33;42.06;97203.69;10387645;28;20050;-57
2023/06/04 22:05:32;;;;;;;2.47;1.40;;;;;;;19.33;42.12;97198.28;10387241;28;20102;-57
2023/06/04 22:10:51;;;;;;;1.85;1.50;;;;;;;19.35;42.23;97206.09;10386159;28;20038;-57
2023/06/04 22:16:11;;;;;;;2.13;1.60;;;;;;;19.32;42.47;97199.38;10386091;28;20045;-57
2023/06/04 22:21:30;;;;;;;3.22;1.50;;;;;;;19.33;42.35;97206.41;10385934;28;20041;-57
2023/06/04 22:26:50;;;;;;;2.05;1.45;;;;;;;19.33;42.47;97200.19;10385686;28;20098;-56
2023/06/04 22:32:10;;;;;;;2.17;1.50;;;;;;;19.32;42.45;97195.91;10431092;28;20050;-57
2023/06/04 22:37:29;;;;;;;1.73;1.40;;;;;;;19.32;42.39;97198.59;10389437;28;20042;-56
2023/06/04 22:42:49;;;;;;;1.70;1.60;;;;;;;19.31;42.52;97191.63;10385347;28;20406;-57
2023/06/04 22:48:09;;;;;;;2.20;1.48;;;;;;;19.30;42.53;97190.78;10394467;28;20045;-56
2023/06/04 22:53:30;;;;;;;1.55;1.45;;;;;;;19.31;42.53;97192.41;10377168;28;20062;-56
2023/06/04 22:58:51;;;;;;;1.70;1.42;;;;;;;19.30;42.56;97180.00;10458439;28;20033;-56
2023/06/04 23:04:12;;;;;;;1.70;1.60;;;;;;;19.30;42.47;97180.00;10446457;28;20050;-56
2023/06/04 23:09:31;;;;;;;1.73;1.40;;;;;;;19.30;42.56;97181.91;10384963;28;20061;-56
2023/06/04 23:14:51;;;;;;;3.08;1.70;;;;;;;19.30;42.60;97184.59;10444928;28;20093;-57
2023/06/04 23:20:11;;;;;;;1.83;1.45;;;;;;;19.29;42.83;97180.31;10370814;28;20058;-56
2023/06/04 23:25:30;;;;;;;1.85;1.38;;;;;;;19.28;42.76;97176.81;10386612;28;20046;-56
2023/06/04 23:30:49;;;;;;;1.48;1.25;;;;;;;19.27;42.78;97169.81;10399709;28;20052;-56
2023/06/04 23:36:09;;;;;;;2.92;1.77;;;;;;;19.28;42.73;97173.31;10383434;28;20051;-56
2023/06/04 23:41:29;;;;;;;1.70;1.58;;;;;;;19.27;42.89;97163.63;10405587;28;20041;-57
2023/06/04 23:46:48;;;;;;;2.00;1.75;;;;;;;19.27;42.78;97152.84;10383251;28;20498;-56
2023/06/04 23:52:08;;;;;;;2.67;1.50;;;;;;;19.27;42.73;97152.84;10379862;28;20422;-56
2023/06/04 23:57:27;;;;;;;1.88;1.58;;;;;;;19.27;42.89;97148.22;10371670;28;20442;-57
